createdAt,value
2022-08-22T00:00:51.825Z,18.11
2022-08-22T00:03:01.249Z,20.61
2022-08-22T00:03:31.434Z,18.01
2022-08-22T00:06:06.950Z,18.00
2022-08-22T00:08:46.159Z,17.79
2022-08-22T00:11:22.070Z,17.74
2022-08-22T00:14:01.299Z,17.80
2022-08-22T00:16:39.492Z,17.70
2022-08-22T00:19:18.722Z,17.72
2022-08-22T00:22:00.250Z,17.76
2022-08-22T00:24:32.231Z,17.72
2022-08-22T00:27:04.349Z,17.74
2022-08-22T00:29:38.818Z,17.68
2022-08-22T00:32:12.928Z,17.51
2022-08-22T00:34:47.683Z,17.39
2022-08-22T00:37:24.450Z,17.37
2022-08-22T00:39:56.087Z,17.32
2022-08-22T00:42:54.205Z,17.27
2022-08-22T00:45:48.422Z,17.14
2022-08-22T00:48:36.129Z,17.14
2022-08-22T00:51:24.080Z,17.21
2022-08-22T00:54:01.154Z,17.23
2022-08-22T00:57:06.269Z,17.24
2022-08-22T00:59:52.884Z,17.17
2022-08-22T01:02:32.920Z,17.16
2022-08-22T01:05:39.705Z,17.20
2022-08-22T01:08:22.352Z,17.18
2022-08-22T01:11:06.229Z,17.05
2022-08-22T01:13:47.999Z,16.97
2022-08-22T01:16:41.657Z,16.92
2022-08-22T01:19:50.786Z,16.94
2022-08-22T01:22:48.082Z,16.86
2022-08-22T01:25:49.802Z,16.84
2022-08-22T01:28:43.920Z,16.72
2022-08-22T01:32:10.821Z,16.66
2022-08-22T01:35:05.557Z,16.63
2022-08-22T01:37:48.846Z,16.59
2022-08-22T01:41:04.560Z,16.46
2022-08-22T01:43:59.362Z,16.45
2022-08-22T01:46:35.090Z,16.34
2022-08-22T01:49:09.799Z,16.30
2022-08-22T01:51:47.021Z,16.27
2022-08-22T01:54:25.943Z,16.25
2022-08-22T01:57:01.261Z,16.23
2022-08-22T01:59:35.343Z,16.15
2022-08-22T02:02:31.118Z,16.11
2022-08-22T02:05:07.465Z,16.09
2022-08-22T02:07:52.871Z,16.06
2022-08-22T02:10:26.307Z,16.05
2022-08-22T02:13:05.275Z,15.95
2022-08-22T02:15:47.963Z,15.91
2022-08-22T02:18:25.725Z,15.93
2022-08-22T02:21:04.037Z,15.88
2022-08-22T02:23:45.248Z,15.91
2022-08-22T02:26:18.359Z,15.92
2022-08-22T02:28:56.943Z,15.90
2022-08-22T02:31:37.787Z,15.85
2022-08-22T02:34:21.498Z,15.87
2022-08-22T02:36:58.176Z,15.79
2022-08-22T02:39:36.798Z,15.76
2022-08-22T02:42:17.494Z,15.68
2022-08-22T02:44:56.381Z,15.62
2022-08-22T02:47:34.052Z,15.52
2022-08-22T02:50:13.146Z,15.46
2022-08-22T02:52:54.385Z,15.43
2022-08-22T02:55:37.202Z,15.34
2022-08-22T02:58:09.799Z,15.36
2022-08-22T03:00:48.185Z,15.36
2022-08-22T03:03:21.120Z,15.28
2022-08-22T03:06:01.433Z,15.31
2022-08-22T03:08:32.963Z,15.26
2022-08-22T03:11:19.787Z,15.19
2022-08-22T03:14:02.685Z,15.14
2022-08-22T03:16:37.302Z,15.15
2022-08-22T03:19:13.320Z,15.15
2022-08-22T03:21:54.901Z,15.08
2022-08-22T03:24:26.917Z,15.09
2022-08-22T03:27:02.924Z,15.05
2022-08-22T03:29:35.744Z,15.12
2022-08-22T03:32:14.972Z,15.07
2022-08-22T03:34:57.935Z,15.12
2022-08-22T03:37:37.503Z,15.07
2022-08-22T03:40:21.236Z,14.97
2022-08-22T03:43:25.894Z,14.92
2022-08-22T03:46:42.022Z,15.02
2022-08-22T03:49:42.214Z,15.02
2022-08-22T03:52:28.938Z,15.02
2022-08-22T03:55:14.053Z,15.07
2022-08-22T03:58:00.500Z,15.03
2022-08-22T04:00:47.746Z,15.00
2022-08-22T04:04:01.290Z,15.09
2022-08-22T04:07:00.135Z,15.16
2022-08-22T04:10:04.180Z,15.13
2022-08-22T04:12:55.453Z,15.18
2022-08-22T04:15:50.042Z,15.26
2022-08-22T04:18:33.327Z,15.18
2022-08-22T04:21:28.367Z,15.11
2022-08-22T04:24:21.680Z,15.06
2022-08-22T04:26:53.991Z,15.02
2022-08-22T04:29:28.238Z,15.22
2022-08-22T04:32:07.000Z,15.13
2022-08-22T04:34:41.124Z,15.29
2022-08-22T04:37:15.735Z,15.29
2022-08-22T04:39:49.750Z,15.40
2022-08-22T04:42:32.725Z,15.38
2022-08-22T04:45:06.971Z,15.46
2022-08-22T04:47:40.015Z,15.52
2022-08-22T04:50:21.289Z,15.46
2022-08-22T04:53:10.710Z,15.63
2022-08-22T04:55:55.419Z,15.67
2022-08-22T04:58:33.029Z,15.79
2022-08-22T05:01:10.480Z,15.85
2022-08-22T05:03:45.863Z,15.94
2022-08-22T05:06:19.764Z,16.06
2022-08-22T05:08:53.895Z,16.15
2022-08-22T05:11:24.787Z,16.31
2022-08-22T05:13:56.078Z,16.48
2022-08-22T05:16:28.510Z,16.60
2022-08-22T05:19:01.818Z,16.73
2022-08-22T05:21:33.830Z,16.89
2022-08-22T05:24:05.652Z,16.96
2022-08-22T05:26:38.954Z,17.04
2022-08-22T05:29:09.147Z,17.14
2022-08-22T05:31:45.274Z,17.21
2022-08-22T05:34:19.091Z,17.35
2022-08-22T05:36:50.196Z,17.39
2022-08-22T05:39:22.507Z,17.48
2022-08-22T05:41:55.817Z,17.61
2022-08-22T05:44:27.030Z,17.80
2022-08-22T05:47:01.243Z,17.82
2022-08-22T05:49:38.863Z,17.89
2022-08-22T05:52:20.295Z,18.00
2022-08-22T05:54:54.579Z,18.06
2022-08-22T05:57:29.986Z,18.20
2022-08-22T06:00:05.104Z,18.40
2022-08-22T06:02:49.410Z,18.49
2022-08-22T06:05:25.790Z,18.28
2022-08-22T06:08:00.194Z,18.16
2022-08-22T06:10:35.944Z,18.08
2022-08-22T06:13:11.510Z,18.26
2022-08-22T06:15:48.667Z,18.45
2022-08-22T06:18:21.478Z,18.64
2022-08-22T06:20:54.590Z,18.69
2022-08-22T06:23:27.607Z,18.68
2022-08-22T06:26:00.627Z,18.75
2022-08-22T06:28:32.824Z,18.73
2022-08-22T06:31:03.452Z,18.76
2022-08-22T06:33:37.946Z,18.72
2022-08-22T06:36:29.257Z,18.79
2022-08-22T06:39:06.572Z,18.88
2022-08-22T06:41:36.784Z,18.97
2022-08-22T06:44:07.989Z,19.04
2022-08-22T06:46:38.239Z,19.06
2022-08-22T06:49:09.227Z,18.98
2022-08-22T06:51:39.722Z,18.99
2022-08-22T06:54:16.634Z,19.18
2022-08-22T06:56:48.347Z,19.44
2022-08-22T06:59:18.475Z,19.79
2022-08-22T07:01:52.466Z,20.12
2022-08-22T07:04:26.401Z,20.51
2022-08-22T07:06:58.290Z,20.82
2022-08-22T07:09:32.087Z,20.82
2022-08-22T07:12:04.030Z,20.70
2022-08-22T07:14:40.728Z,21.10
2022-08-22T07:17:15.933Z,21.36
2022-08-22T07:19:50.449Z,21.78
2022-08-22T07:22:25.156Z,22.19
2022-08-22T07:25:02.282Z,22.07
2022-08-22T07:27:48.806Z,22.34
2022-08-22T07:30:27.941Z,22.97
2022-08-22T07:33:26.159Z,23.79
2022-08-22T07:35:56.819Z,24.10
2022-08-22T07:38:33.628Z,24.67
2022-08-22T07:41:12.842Z,25.91
2022-08-22T07:43:46.144Z,26.44
2022-08-22T07:46:27.466Z,26.47
2022-08-22T07:49:09.414Z,26.86
2022-08-22T07:51:44.095Z,27.13
2022-08-22T07:54:15.555Z,27.24
2022-08-22T07:56:48.308Z,27.30
2022-08-22T07:59:19.331Z,26.79
2022-08-22T08:01:51.534Z,26.60
2022-08-22T08:04:24.762Z,27.17
2022-08-22T08:06:55.753Z,28.23
2022-08-22T08:09:28.764Z,28.88
2022-08-22T08:11:57.187Z,29.15
2022-08-22T08:14:27.102Z,28.98
2022-08-22T08:17:02.304Z,29.80
2022-08-22T08:19:33.307Z,31.34
2022-08-22T08:22:01.520Z,31.77
2022-08-22T08:24:39.838Z,32.60
2022-08-22T08:27:33.245Z,33.79
2022-08-22T08:30:04.054Z,35.06
2022-08-22T08:32:36.078Z,35.82
2022-08-22T08:35:10.475Z,35.23
2022-08-22T08:37:44.713Z,36.99
2022-08-22T08:40:25.576Z,37.55
2022-08-22T08:43:29.617Z,38.95
2022-08-22T08:46:24.756Z,41.48
2022-08-22T08:49:29.445Z,41.86
2022-08-22T08:52:49.031Z,42.36
2022-08-22T08:55:30.374Z,41.89
2022-08-22T08:58:24.076Z,43.42
2022-08-22T09:00:59.541Z,42.75
2022-08-22T09:04:13.455Z,45.06
2022-08-22T09:07:01.493Z,41.99
2022-08-22T09:09:52.409Z,38.67
2022-08-22T09:16:04.598Z,37.73
2022-08-22T09:18:52.065Z,36.81
2022-08-22T09:21:50.578Z,36.69
2022-08-22T09:24:46.500Z,36.65
2022-08-22T09:27:20.304Z,37.69
2022-08-22T09:29:59.634Z,37.64
2022-08-22T09:32:42.429Z,37.90
2022-08-22T09:35:20.040Z,36.71
2022-08-22T09:38:02.649Z,35.94
2022-08-22T09:40:35.880Z,35.91
2022-08-22T09:43:07.540Z,38.18
2022-08-22T09:46:02.486Z,40.63
2022-08-22T09:48:42.483Z,41.83
2022-08-22T09:51:32.452Z,39.94
2022-08-22T09:54:24.820Z,38.36
2022-08-22T09:57:04.041Z,38.91
2022-08-22T09:59:51.495Z,38.31
2022-08-22T10:02:29.567Z,39.84
2022-08-22T10:05:04.155Z,42.90
2022-08-22T10:07:46.879Z,43.98
2022-08-22T10:10:36.792Z,43.42
2022-08-22T10:13:13.102Z,43.18
2022-08-22T10:15:44.015Z,43.33
2022-08-22T10:18:29.685Z,43.70
2022-08-22T10:21:09.740Z,42.03
2022-08-22T10:23:45.902Z,42.51
2022-08-22T10:26:29.162Z,44.71
2022-08-22T10:29:06.873Z,46.83
2022-08-22T10:31:45.071Z,48.32
2022-08-22T10:34:34.109Z,49.41
2022-08-22T10:37:23.769Z,50.38
2022-08-22T10:39:59.720Z,49.33
2022-08-22T10:42:35.723Z,48.17
2022-08-22T10:45:23.997Z,47.30
2022-08-22T10:48:24.258Z,46.46
2022-08-22T10:51:08.926Z,46.13
2022-08-22T10:53:57.010Z,47.36
2022-08-22T10:56:28.393Z,48.58
2022-08-22T10:59:08.205Z,46.75
2022-08-22T11:01:51.166Z,45.85
2022-08-22T11:04:36.128Z,45.96
2022-08-22T11:07:21.518Z,42.86
2022-08-22T11:09:58.774Z,44.58
2022-08-22T11:12:36.563Z,44.70
2022-08-22T11:15:34.515Z,42.92
2022-08-22T11:18:20.516Z,44.18
2022-08-22T11:21:00.106Z,44.35
2022-08-22T11:23:40.120Z,44.99
2022-08-22T11:26:29.908Z,45.35
2022-08-22T11:29:26.339Z,44.86
2022-08-22T11:32:07.838Z,44.83
2022-08-22T11:34:51.660Z,46.84
2022-08-22T11:37:42.823Z,47.82
2022-08-22T11:40:23.954Z,46.36
2022-08-22T11:43:02.976Z,44.02
2022-08-22T11:45:40.408Z,41.79
2022-08-22T11:48:21.130Z,42.29
2022-08-22T11:50:55.759Z,44.10
2022-08-22T11:53:34.942Z,44.09
2022-08-22T11:56:17.421Z,44.68
2022-08-22T11:58:57.667Z,41.93
2022-08-22T12:01:35.099Z,39.43
2022-08-22T12:04:12.941Z,37.88
2022-08-22T12:06:51.402Z,36.73
2022-08-22T12:09:31.839Z,36.47
2022-08-22T12:12:32.528Z,36.24
2022-08-22T12:15:09.189Z,35.29
2022-08-22T12:18:01.976Z,35.09
2022-08-22T12:20:56.088Z,35.00
2022-08-22T12:23:49.443Z,34.73
2022-08-22T12:26:28.057Z,34.33
2022-08-22T12:29:15.523Z,33.76
2022-08-22T12:32:31.915Z,33.09
2022-08-22T12:35:18.528Z,32.25
2022-08-22T12:37:54.350Z,32.16
2022-08-22T12:40:32.786Z,32.51
2022-08-22T12:43:33.489Z,32.52
2022-08-22T12:46:35.482Z,32.47
2022-08-22T12:49:22.695Z,32.86
2022-08-22T12:52:04.748Z,32.98
2022-08-22T12:54:53.641Z,33.07
2022-08-22T12:57:34.337Z,32.98
2022-08-22T13:00:22.840Z,32.84
2022-08-22T13:02:55.805Z,32.90
2022-08-22T13:05:27.363Z,33.34
2022-08-22T13:08:02.397Z,33.56
2022-08-22T13:10:39.970Z,33.61
2022-08-22T13:13:12.829Z,33.43
2022-08-22T13:15:53.863Z,33.31
2022-08-22T13:18:29.798Z,33.26
2022-08-22T13:21:02.735Z,32.32
2022-08-22T13:23:34.259Z,33.10
2022-08-22T13:26:12.252Z,33.59
2022-08-22T13:29:24.173Z,33.67
2022-08-22T13:31:55.177Z,32.87
2022-08-22T13:34:39.661Z,32.69
2022-08-22T13:37:12.710Z,33.20
2022-08-22T13:39:45.647Z,32.65
2022-08-22T13:42:29.728Z,32.75
2022-08-22T13:45:02.224Z,32.65
2022-08-22T13:47:34.569Z,32.75
2022-08-22T13:50:23.556Z,32.40
2022-08-22T13:52:59.082Z,32.12
2022-08-22T13:55:34.001Z,31.88
2022-08-22T13:58:07.685Z,31.28
2022-08-22T14:01:13.913Z,31.35
2022-08-22T14:03:49.124Z,31.20
2022-08-22T14:06:37.924Z,31.46
2022-08-22T14:09:15.508Z,31.48
2022-08-22T14:11:50.024Z,31.34
2022-08-22T14:14:26.484Z,31.07
2022-08-22T14:16:56.185Z,30.97
2022-08-22T14:19:31.943Z,31.28
2022-08-22T14:22:31.997Z,31.43
2022-08-22T14:25:07.338Z,31.73
2022-08-22T14:27:39.780Z,32.00
2022-08-22T14:30:15.836Z,32.19
2022-08-22T14:32:48.650Z,32.22
2022-08-22T14:35:29.238Z,31.71
2022-08-22T14:38:17.868Z,31.91
2022-08-22T14:40:47.475Z,32.25
2022-08-22T14:43:22.794Z,32.51
2022-08-22T14:45:57.843Z,32.62
2022-08-22T14:48:40.573Z,32.00
2022-08-22T14:51:18.401Z,32.52
2022-08-22T14:53:51.341Z,33.03
2022-08-22T14:56:22.941Z,32.66
2022-08-22T14:58:54.854Z,32.55
2022-08-22T15:01:25.411Z,32.76
2022-08-22T15:03:56.376Z,32.94
2022-08-22T15:06:37.072Z,33.09
2022-08-22T15:09:12.617Z,33.06
2022-08-22T15:11:48.619Z,32.96
2022-08-22T15:14:25.322Z,32.33
2022-08-22T15:16:56.042Z,32.07
2022-08-22T15:19:27.485Z,31.89
2022-08-22T15:22:11.372Z,31.74
2022-08-22T15:24:46.138Z,31.85
2022-08-22T15:27:18.886Z,31.88
2022-08-22T15:29:52.477Z,31.32
2022-08-22T15:32:26.801Z,31.35
2022-08-22T15:35:05.016Z,31.41
2022-08-22T15:37:34.961Z,31.64
2022-08-22T15:40:12.717Z,31.67
2022-08-22T15:42:42.058Z,31.56
2022-08-22T15:45:20.963Z,31.47
2022-08-22T15:47:53.768Z,31.59
2022-08-22T15:50:35.591Z,31.74
2022-08-22T15:53:13.403Z,31.59
2022-08-22T15:56:27.915Z,31.55
2022-08-22T15:59:23.966Z,31.35
2022-08-22T16:01:54.885Z,30.88
2022-08-22T16:04:43.753Z,30.45
2022-08-22T16:07:38.739Z,30.10
2022-08-22T16:10:14.468Z,30.01
2022-08-22T16:12:47.676Z,29.86
2022-08-22T16:15:56.937Z,29.69
2022-08-22T16:19:02.023Z,29.15
2022-08-22T16:22:10.326Z,28.85
2022-08-22T16:24:57.476Z,29.08
2022-08-22T16:27:28.058Z,29.32
2022-08-22T16:30:13.130Z,29.47
2022-08-22T16:32:52.170Z,29.50
2022-08-22T16:35:57.296Z,29.48
2022-08-22T16:38:26.885Z,29.50
2022-08-22T16:40:54.958Z,29.49
2022-08-22T16:43:23.210Z,29.40
2022-08-22T16:45:58.924Z,29.31
2022-08-22T16:48:36.053Z,28.98
2022-08-22T16:51:14.751Z,28.66
2022-08-22T16:54:06.150Z,28.36
2022-08-22T16:56:40.539Z,28.18
2022-08-22T16:59:28.784Z,27.96
2022-08-22T17:02:32.300Z,27.75
2022-08-22T17:05:21.023Z,27.66
2022-08-22T17:08:03.832Z,27.71
2022-08-22T17:10:43.231Z,27.54
2022-08-22T17:13:26.560Z,27.48
2022-08-22T17:16:09.968Z,27.35
2022-08-22T17:18:50.755Z,27.19
2022-08-22T17:21:26.165Z,27.15
2022-08-22T17:24:04.994Z,27.09
2022-08-22T17:26:48.799Z,27.01
2022-08-22T17:29:30.539Z,26.92
2022-08-22T17:32:08.124Z,26.72
2022-08-22T17:34:43.634Z,26.58
2022-08-22T17:37:22.658Z,26.49
2022-08-22T17:40:17.805Z,26.23
2022-08-22T17:42:55.470Z,26.03
2022-08-22T17:45:37.287Z,25.99
2022-08-22T17:48:16.962Z,25.78
2022-08-22T17:50:50.451Z,25.73
2022-08-22T17:53:30.153Z,25.62
2022-08-22T17:56:05.727Z,25.48
2022-08-22T17:58:43.685Z,25.32
2022-08-22T18:01:15.332Z,25.33
2022-08-22T18:03:51.822Z,25.32
2022-08-22T18:06:25.145Z,25.17
2022-08-22T18:11:50.998Z,25.12
2022-08-22T18:14:30.761Z,25.05
2022-08-22T18:17:00.990Z,25.06
2022-08-22T18:19:53.852Z,25.07
2022-08-22T18:22:29.171Z,24.89
2022-08-22T18:25:02.461Z,24.71
2022-08-22T18:27:37.245Z,24.56
2022-08-22T18:30:16.075Z,24.29
2022-08-22T18:32:54.865Z,24.10
2022-08-22T18:35:29.512Z,24.05
2022-08-22T18:38:19.705Z,23.97
2022-08-22T18:40:51.561Z,23.95
2022-08-22T18:43:24.213Z,23.74
2022-08-22T18:46:03.582Z,23.63
2022-08-22T18:48:59.470Z,23.65
2022-08-22T18:51:38.522Z,23.56
2022-08-22T18:54:34.904Z,23.47
2022-08-22T18:57:23.656Z,23.41
2022-08-22T19:00:05.128Z,23.35
2022-08-22T19:02:55.685Z,23.31
2022-08-22T19:05:54.657Z,23.28
2022-08-22T19:08:36.465Z,23.30
2022-08-22T19:11:17.497Z,23.31
2022-08-22T19:14:25.194Z,23.35
2022-08-22T19:17:18.970Z,23.41
2022-08-22T19:20:14.533Z,23.40
2022-08-22T19:22:43.427Z,23.53
2022-08-22T19:25:19.238Z,23.48
2022-08-22T19:28:26.656Z,23.44
2022-08-22T19:31:24.529Z,23.36
2022-08-22T19:34:29.884Z,23.39
2022-08-22T19:37:30.820Z,23.31
2022-08-22T19:40:02.964Z,23.22
2022-08-22T19:42:39.446Z,23.18
2022-08-22T19:45:18.738Z,23.14
2022-08-22T19:47:57.654Z,22.94
2022-08-22T19:50:31.370Z,22.78
2022-08-22T19:53:20.562Z,22.71
2022-08-22T19:56:02.678Z,22.64
2022-08-22T19:58:45.085Z,22.70
2022-08-22T20:01:31.957Z,22.66
2022-08-22T20:04:08.512Z,22.57
2022-08-22T20:06:44.422Z,22.43
2022-08-22T20:09:25.746Z,22.37
2022-08-22T20:12:05.458Z,22.30
2022-08-22T20:14:35.585Z,22.32
2022-08-22T20:17:12.798Z,22.29
2022-08-22T20:22:44.391Z,22.24
2022-08-22T20:25:41.573Z,22.16
2022-08-22T20:28:11.223Z,22.14
2022-08-22T20:30:42.125Z,22.09
2022-08-22T20:33:18.437Z,22.08
2022-08-22T20:35:54.267Z,22.11
2022-08-22T20:38:27.860Z,22.00
2022-08-22T20:41:11.044Z,21.98
2022-08-22T20:43:46.088Z,22.13
2022-08-22T20:46:26.485Z,22.03
2022-08-22T20:48:57.132Z,22.06
2022-08-22T20:51:28.223Z,22.05
2022-08-22T20:53:58.656Z,22.03
2022-08-22T20:56:34.948Z,21.96
2022-08-22T20:59:16.866Z,21.97
2022-08-22T21:01:46.087Z,21.97
2022-08-22T21:04:15.790Z,21.93
2022-08-22T21:06:44.988Z,21.89
2022-08-22T21:09:35.699Z,21.89
2022-08-22T21:12:04.785Z,21.96
2022-08-22T21:14:37.530Z,21.96
2022-08-22T21:17:21.036Z,21.92
2022-08-22T21:19:49.144Z,21.87
2022-08-22T21:22:30.163Z,21.81
2022-08-22T21:25:00.289Z,21.77
2022-08-22T21:27:31.355Z,21.83
2022-08-22T21:30:01.093Z,21.80
2022-08-22T21:32:34.603Z,21.74
2022-08-22T21:35:05.014Z,21.82
2022-08-22T21:37:41.625Z,21.65
2022-08-22T21:40:18.102Z,21.63
2022-08-22T21:42:59.357Z,21.71
2022-08-22T21:45:29.664Z,21.59
2022-08-22T21:47:58.404Z,21.52
2022-08-22T21:50:31.694Z,21.45
2022-08-22T21:53:10.181Z,21.38
2022-08-22T21:55:42.835Z,21.33
2022-08-22T21:58:36.014Z,21.30
2022-08-22T22:01:30.338Z,21.36
2022-08-22T22:03:58.970Z,21.33
2022-08-22T22:06:27.451Z,21.30
2022-08-22T22:08:56.837Z,21.31
2022-08-22T22:11:24.639Z,21.28
2022-08-22T22:13:52.159Z,21.22
2022-08-22T22:16:24.293Z,21.14
2022-08-22T22:18:51.927Z,21.07
2022-08-22T22:21:19.652Z,21.00
2022-08-22T22:23:47.216Z,20.95
2022-08-22T22:26:16.340Z,20.95
2022-08-22T22:28:48.271Z,20.91
2022-08-22T22:31:18.276Z,20.93
2022-08-22T22:33:46.884Z,20.84
2022-08-22T22:36:19.379Z,20.90
2022-08-22T22:38:47.905Z,20.90
2022-08-22T22:41:17.011Z,20.86
2022-08-22T22:43:44.693Z,20.82
2022-08-22T22:46:12.522Z,20.83
2022-08-22T22:48:40.334Z,20.84
2022-08-22T22:51:08.850Z,20.84
2022-08-22T22:53:40.165Z,20.84
2022-08-22T22:56:13.934Z,20.87
2022-08-22T22:58:43.281Z,20.85
2022-08-22T23:01:13.541Z,20.92
2022-08-22T23:03:41.507Z,20.83
2022-08-22T23:06:12.609Z,20.80
2022-08-22T23:08:40.432Z,20.74
2022-08-22T23:11:11.655Z,20.65
2022-08-22T23:13:39.843Z,20.54
2022-08-22T23:16:15.553Z,20.53
2022-08-22T23:18:44.467Z,20.51
2022-08-22T23:21:14.384Z,20.48
2022-08-22T23:23:42.592Z,20.42
2022-08-22T23:26:10.421Z,20.34
2022-08-22T23:28:38.108Z,20.24
2022-08-22T23:31:19.422Z,20.36
2022-08-22T23:33:47.432Z,20.27
2022-08-22T23:36:17.941Z,20.19
2022-08-22T23:38:46.964Z,20.18
2022-08-22T23:41:17.743Z,20.19
2022-08-22T23:43:49.283Z,20.28
2022-08-22T23:46:20.586Z,20.27
2022-08-22T23:48:48.488Z,20.22
2022-08-22T23:51:18.900Z,20.18
2022-08-22T23:53:51.356Z,20.14
2022-08-22T23:56:22.149Z,20.18
2022-08-22T23:58:51.147Z,20.10
